createdAt,value
2023-01-20T00:02:18.475Z,97733.91
2023-01-20T00:05:20.080Z,97743.53
2023-01-20T00:08:23.203Z,97747.06
2023-01-20T00:11:25.307Z,97753.97
2023-01-20T00:14:27.858Z,97749.56
2023-01-20T00:17:29.396Z,97753.91
2023-01-20T00:20:31.032Z,97761.78
2023-01-20T00:23:34.169Z,97768.72
2023-01-20T00:26:35.935Z,97771.38
2023-01-20T00:29:37.762Z,97767.97
2023-01-20T00:32:39.965Z,97780.13
2023-01-20T00:35:41.984Z,97782.81
2023-01-20T00:38:45.271Z,97781.09
2023-01-20T00:41:46.822Z,97789.75
2023-01-20T00:44:49.170Z,97788.00
2023-01-20T00:47:50.780Z,97797.56
2023-01-20T00:50:52.495Z,97799.34
2023-01-20T00:53:55.810Z,97795.81
2023-01-20T00:56:57.802Z,97787.09
2023-01-20T00:59:59.578Z,97793.19
2023-01-20T01:03:01.241Z,97795.81
2023-01-20T01:06:07.286Z,97803.63
2023-01-20T01:09:10.333Z,97804.50
2023-01-20T01:12:11.975Z,97807.13
2023-01-20T01:15:14.332Z,97815.06
2023-01-20T01:18:16.303Z,97815.94
2023-01-20T01:21:18.011Z,97821.16
2023-01-20T01:24:21.377Z,97826.41
2023-01-20T01:27:23.856Z,97839.50
2023-01-20T01:30:25.643Z,97833.41
2023-01-20T01:33:27.420Z,97832.53
2023-01-20T01:36:29.089Z,97829.97
2023-01-20T01:39:32.005Z,97838.72
2023-01-20T01:42:33.633Z,97843.16
2023-01-20T01:45:35.720Z,97841.47
2023-01-20T01:48:38.910Z,97842.31
2023-01-20T01:51:42.873Z,97850.19
2023-01-20T01:54:46.291Z,97845.00
2023-01-20T01:57:48.741Z,97850.22
2023-01-20T02:00:50.762Z,97846.69
2023-01-20T02:03:57.842Z,97845.81
2023-01-20T02:07:02.039Z,97849.31
2023-01-20T02:10:05.555Z,97855.41
2023-01-20T02:13:07.349Z,97847.53
2023-01-20T02:16:12.668Z,97845.78
2023-01-20T02:19:31.562Z,97855.41
2023-01-20T02:22:37.824Z,97851.06
2023-01-20T02:25:56.111Z,97857.16
2023-01-20T02:29:11.034Z,97851.06
2023-01-20T02:32:19.173Z,97857.19
2023-01-20T02:35:25.082Z,97864.16
2023-01-20T02:38:31.293Z,97858.06
2023-01-20T02:41:36.888Z,97868.53
2023-01-20T02:44:41.408Z,97867.69
2023-01-20T02:47:50.992Z,97863.41
2023-01-20T02:50:56.571Z,97862.63
2023-01-20T02:54:01.962Z,97874.06
2023-01-20T02:57:06.723Z,97869.00
2023-01-20T03:00:10.679Z,97862.97
2023-01-20T03:03:17.106Z,97870.06
2023-01-20T03:06:20.883Z,97876.22
2023-01-20T03:09:26.811Z,97870.16
2023-01-20T03:12:30.786Z,97886.81
2023-01-20T03:15:35.661Z,97885.03
2023-01-20T03:18:39.565Z,97889.34
2023-01-20T03:21:41.357Z,97894.50
2023-01-20T03:24:44.053Z,97895.22
2023-01-20T03:27:45.733Z,97895.13
2023-01-20T03:30:47.527Z,97900.34
2023-01-20T03:33:52.183Z,97902.94
2023-01-20T03:36:54.562Z,97899.41
2023-01-20T03:39:57.948Z,97907.22
2023-01-20T03:43:01.671Z,97904.59
2023-01-20T03:46:06.835Z,97910.78
2023-01-20T03:49:16.279Z,97918.59
2023-01-20T03:52:23.767Z,97913.38
2023-01-20T03:55:48.146Z,97919.47
2023-01-20T03:58:51.646Z,97928.19
2023-01-20T04:01:54.259Z,97923.75
2023-01-20T04:04:58.361Z,97924.66
2023-01-20T04:08:02.048Z,97922.03
2023-01-20T04:11:05.230Z,97933.38
2023-01-20T04:14:08.666Z,97938.63
2023-01-20T04:17:10.363Z,97933.38
2023-01-20T04:20:14.827Z,97932.44
2023-01-20T04:23:19.714Z,97932.44
2023-01-20T04:26:21.580Z,97934.13
2023-01-20T04:29:23.442Z,97943.72
2023-01-20T04:32:25.290Z,97935.88
2023-01-20T04:35:29.331Z,97943.72
2023-01-20T04:38:30.968Z,97944.63
2023-01-20T04:41:32.954Z,97942.88
2023-01-20T04:44:34.716Z,97950.81
2023-01-20T04:47:36.588Z,97956.03
2023-01-20T04:50:39.925Z,97961.34
2023-01-20T04:53:41.895Z,97960.44
2023-01-20T04:56:44.277Z,97956.97
2023-01-20T04:59:45.967Z,97956.06
2023-01-20T05:02:47.875Z,97960.41
2023-01-20T05:05:54.745Z,97963.00
2023-01-20T05:08:56.447Z,97962.09
2023-01-20T05:11:58.362Z,97966.47
2023-01-20T05:15:00.285Z,97965.63
2023-01-20T05:18:02.031Z,97969.94
2023-01-20T05:21:05.551Z,97974.31
2023-01-20T05:24:07.539Z,97983.91
2023-01-20T05:27:09.580Z,97983.94
2023-01-20T05:30:11.662Z,97985.72
2023-01-20T05:33:13.545Z,97980.47
2023-01-20T05:36:17.022Z,97984.88
2023-01-20T05:39:19.017Z,97986.63
2023-01-20T05:42:21.112Z,97990.13
2023-01-20T05:45:23.963Z,97984.91
2023-01-20T05:48:25.860Z,97994.50
2023-01-20T05:51:29.293Z,97992.81
2023-01-20T05:54:31.241Z,97996.31
2023-01-20T05:57:33.156Z,97992.84
2023-01-20T06:00:35.117Z,97998.13
2023-01-20T06:03:37.413Z,98006.03
2023-01-20T06:06:40.883Z,98006.00
2023-01-20T06:09:42.740Z,98009.50
2023-01-20T06:12:44.553Z,98012.19
2023-01-20T06:15:50.759Z,98014.88
2023-01-20T06:18:52.723Z,98013.25
2023-01-20T06:21:56.076Z,98014.22
2023-01-20T06:24:58.199Z,98019.53
2023-01-20T06:27:59.902Z,98019.63
2023-01-20T06:31:02.747Z,98022.34
2023-01-20T06:34:04.766Z,98028.47
2023-01-20T06:37:08.413Z,98028.47
2023-01-20T06:40:10.758Z,98025.84
2023-01-20T06:43:15.190Z,98031.91
2023-01-20T06:46:17.247Z,98038.84
2023-01-20T06:49:19.327Z,98042.31
2023-01-20T06:52:22.535Z,98042.34
2023-01-20T06:55:24.315Z,98043.25
2023-01-20T06:58:26.749Z,98050.28
2023-01-20T07:01:29.756Z,98053.84
2023-01-20T07:04:31.665Z,98065.25
2023-01-20T07:07:35.167Z,98067.94
2023-01-20T07:10:36.968Z,98071.44
2023-01-20T07:13:38.747Z,98072.28
2023-01-20T07:16:40.566Z,98079.34
2023-01-20T07:19:42.599Z,98082.84
2023-01-20T07:22:45.927Z,98084.59
2023-01-20T07:25:47.769Z,98088.09
2023-01-20T07:28:49.905Z,98091.63
2023-01-20T07:31:51.677Z,98094.28
2023-01-20T07:34:53.277Z,98103.06
2023-01-20T07:37:56.710Z,98104.81
2023-01-20T07:40:58.753Z,98120.50
2023-01-20T07:44:00.329Z,98123.09
2023-01-20T07:47:02.023Z,98122.19
2023-01-20T07:50:03.891Z,98131.75
2023-01-20T07:53:06.897Z,98125.63
2023-01-20T07:56:10.099Z,98125.66
2023-01-20T07:59:12.067Z,98134.38
2023-01-20T08:02:13.642Z,98145.72
2023-01-20T08:05:15.778Z,98144.84
2023-01-20T08:08:19.056Z,98152.66
2023-01-20T08:11:22.108Z,98151.78
2023-01-20T08:14:23.837Z,98162.22
2023-01-20T08:17:25.643Z,98162.19
2023-01-20T08:20:27.477Z,98156.94
2023-01-20T08:23:30.611Z,98169.16
2023-01-20T08:26:32.801Z,98165.66
2023-01-20T08:29:34.586Z,98176.13
2023-01-20T08:32:36.279Z,98177.81
2023-01-20T08:35:38.385Z,98182.13
2023-01-20T08:38:41.942Z,98183.78
2023-01-20T08:41:44.182Z,98192.41
2023-01-20T08:44:47.343Z,98197.59
2023-01-20T08:47:49.206Z,98196.66
2023-01-20T08:50:51.045Z,98198.34
2023-01-20T08:53:54.221Z,98199.88
2023-01-20T08:56:56.224Z,98200.59
2023-01-20T08:59:58.144Z,98202.31
2023-01-20T09:02:59.857Z,98204.91
2023-01-20T09:06:01.948Z,98198.72
2023-01-20T09:09:05.348Z,98207.44
2023-01-20T09:12:07.413Z,98211.00
2023-01-20T09:15:09.980Z,98208.41
2023-01-20T09:18:11.781Z,98215.31
2023-01-20T09:21:13.809Z,98210.91
2023-01-20T09:24:16.985Z,98220.47
2023-01-20T09:27:19.007Z,98226.56
2023-01-20T09:30:20.760Z,98227.38
2023-01-20T09:33:23.478Z,98222.19
2023-01-20T09:36:28.592Z,98226.53
2023-01-20T09:39:52.047Z,98241.44
2023-01-20T09:43:18.848Z,98243.13
2023-01-20T09:46:24.747Z,98253.59
2023-01-20T09:49:50.290Z,98252.66
2023-01-20T09:53:02.478Z,98257.84
2023-01-20T09:56:09.409Z,98253.41
2023-01-20T09:59:14.919Z,98257.69
2023-01-20T10:02:18.854Z,98261.16
2023-01-20T10:05:21.122Z,98257.63
2023-01-20T10:08:26.974Z,98256.78
2023-01-20T10:11:32.370Z,98251.53
2023-01-20T10:14:37.473Z,98251.59
2023-01-20T10:17:43.991Z,98265.50
2023-01-20T10:20:49.015Z,98263.69
2023-01-20T10:23:51.949Z,98262.78
2023-01-20T10:26:59.195Z,98266.22
2023-01-20T10:30:05.796Z,98259.13
2023-01-20T10:33:09.849Z,98266.09
2023-01-20T10:36:16.551Z,98263.47
2023-01-20T10:39:23.182Z,98274.78
2023-01-20T10:42:28.611Z,98266.88
2023-01-20T10:45:37.212Z,98275.47
2023-01-20T10:48:49.256Z,98277.09
2023-01-20T10:52:00.103Z,98276.06
2023-01-20T10:55:09.650Z,98280.41
2023-01-20T10:58:18.422Z,98283.00
2023-01-20T11:01:20.684Z,98288.91
2023-01-20T11:04:22.609Z,98284.59
2023-01-20T11:07:25.278Z,98289.88
2023-01-20T11:10:28.391Z,98297.78
2023-01-20T11:13:31.600Z,98290.03
2023-01-20T11:16:33.657Z,98299.72
2023-01-20T11:19:45.148Z,98288.31
2023-01-20T11:22:48.198Z,98295.28
2023-01-20T11:25:54.541Z,98292.50
2023-01-20T11:28:58.185Z,98303.53
2023-01-20T11:31:59.990Z,98309.59
2023-01-20T11:35:02.678Z,98313.00
2023-01-20T11:38:20.386Z,98312.19
2023-01-20T11:41:23.183Z,98319.59
2023-01-20T11:44:26.397Z,98324.16
2023-01-20T11:47:29.404Z,98326.81
2023-01-20T11:50:35.763Z,98332.06
2023-01-20T11:53:37.647Z,98332.06
2023-01-20T11:56:40.719Z,98339.91
2023-01-20T11:59:49.339Z,98338.19
2023-01-20T12:02:56.932Z,98340.88
2023-01-20T12:06:03.765Z,98338.38
2023-01-20T12:09:08.665Z,98347.22
2023-01-20T12:12:17.499Z,98340.16
2023-01-20T12:15:22.569Z,98344.50
2023-01-20T12:18:30.208Z,98348.13
2023-01-20T12:21:34.783Z,98349.84
2023-01-20T12:24:58.955Z,98352.41
2023-01-20T12:28:03.429Z,98357.69
2023-01-20T12:31:07.432Z,98360.41
2023-01-20T12:34:12.397Z,98366.59
2023-01-20T12:37:17.203Z,98371.94
2023-01-20T12:40:22.463Z,98375.44
2023-01-20T12:43:42.310Z,98374.59
2023-01-20T12:46:49.387Z,98379.84
2023-01-20T12:50:00.943Z,98380.06
2023-01-20T12:53:11.116Z,98385.50
2023-01-20T12:56:17.699Z,98394.28
2023-01-20T12:59:26.713Z,98396.97
2023-01-20T13:02:43.695Z,98401.41
2023-01-20T13:05:59.029Z,98393.56
2023-01-20T13:09:08.192Z,98390.94
2023-01-20T13:12:15.325Z,98403.25
2023-01-20T13:15:22.962Z,98400.59
2023-01-20T13:18:29.210Z,98399.81
2023-01-20T13:21:31.752Z,98399.81
2023-01-20T13:24:34.295Z,98409.41
2023-01-20T13:27:37.522Z,98405.97
2023-01-20T13:30:41.084Z,98416.50
2023-01-20T13:33:44.031Z,98415.69
2023-01-20T13:37:17.533Z,98417.41
2023-01-20T13:40:47.230Z,98418.28
2023-01-20T13:43:49.606Z,98424.31
2023-01-20T13:46:51.347Z,98429.66
2023-01-20T13:49:54.703Z,98432.25
2023-01-20T13:53:13.125Z,98434.91
2023-01-20T13:56:24.603Z,98435.81
2023-01-20T13:59:26.385Z,98440.16
2023-01-20T14:02:35.198Z,98446.22
2023-01-20T14:05:39.839Z,98453.22
2023-01-20T14:08:42.499Z,98451.53
2023-01-20T14:11:49.031Z,98456.84
2023-01-20T14:14:52.323Z,98455.94
2023-01-20T14:17:54.642Z,98463.78
2023-01-20T14:20:59.787Z,98463.88
2023-01-20T14:24:03.878Z,98468.34
2023-01-20T14:27:06.148Z,98466.66
2023-01-20T14:30:15.964Z,98465.78
2023-01-20T14:33:17.894Z,98472.78
2023-01-20T14:36:22.227Z,98478.88
2023-01-20T14:39:26.134Z,98483.28
2023-01-20T14:42:28.664Z,98498.16
2023-01-20T14:45:32.096Z,98498.25
2023-01-20T14:48:35.282Z,98495.56
2023-01-20T14:51:38.444Z,98493.84
2023-01-20T14:54:43.612Z,98519.25
2023-01-20T14:57:45.501Z,98508.81
2023-01-20T15:00:48.559Z,98515.81
2023-01-20T15:03:57.240Z,98514.94
2023-01-20T15:07:00.485Z,98510.59
2023-01-20T15:10:07.821Z,98523.72
2023-01-20T15:13:22.129Z,98521.94
2023-01-20T15:16:25.590Z,98530.72
2023-01-20T15:19:31.416Z,98530.75
2023-01-20T15:22:34.452Z,98540.34
2023-01-20T15:25:37.034Z,98546.44
2023-01-20T15:28:42.992Z,98546.50
2023-01-20T15:31:44.682Z,98560.53
2023-01-20T15:34:47.403Z,98560.56
2023-01-20T15:37:50.721Z,98571.06
2023-01-20T15:40:52.436Z,98577.25
2023-01-20T15:43:54.161Z,98587.75
2023-01-20T15:46:57.572Z,98581.66
2023-01-20T15:49:59.491Z,98593.00
2023-01-20T15:53:03.477Z,98600.91
2023-01-20T15:56:05.771Z,98602.69
2023-01-20T15:59:12.324Z,98609.69
2023-01-20T16:02:16.685Z,98615.81
2023-01-20T16:05:18.721Z,98622.81
2023-01-20T16:08:22.976Z,98626.34
2023-01-20T16:11:25.082Z,98627.22
2023-01-20T16:14:26.892Z,98637.69
2023-01-20T16:17:30.326Z,98646.47
2023-01-20T16:20:34.378Z,98652.56
2023-01-20T16:23:37.516Z,98660.44
2023-01-20T16:26:39.631Z,98661.31
2023-01-20T16:29:41.493Z,98659.53
2023-01-20T16:32:46.270Z,98664.81
2023-01-20T16:35:48.442Z,98666.56
2023-01-20T16:38:52.201Z,98673.53
2023-01-20T16:41:54.018Z,98675.28
2023-01-20T16:44:55.906Z,98684.91
2023-01-20T16:47:57.776Z,98691.03
2023-01-20T16:51:04.715Z,98691.91
2023-01-20T16:54:09.465Z,98689.28
2023-01-20T16:57:11.482Z,98692.75
2023-01-20T17:00:16.793Z,98706.75
2023-01-20T17:03:20.181Z,98705.00
2023-01-20T17:06:23.515Z,98712.00
2023-01-20T17:09:26.820Z,98719.84
2023-01-20T17:12:28.648Z,98713.72
2023-01-20T17:15:34.408Z,98725.97
2023-01-20T17:18:36.480Z,98732.03
2023-01-20T17:21:38.861Z,98737.28
2023-01-20T17:24:42.389Z,98736.41
2023-01-20T17:27:45.090Z,98741.66
2023-01-20T17:30:47.686Z,98746.03
2023-01-20T17:33:49.933Z,98757.34
2023-01-20T17:36:51.974Z,98759.97
2023-01-20T17:39:55.519Z,98762.59
2023-01-20T17:42:58.598Z,98763.41
2023-01-20T17:46:00.572Z,98773.03
2023-01-20T17:49:04.864Z,98776.50
2023-01-20T17:52:07.239Z,98784.38
2023-01-20T17:55:11.090Z,98778.22
2023-01-20T17:58:13.118Z,98781.72
2023-01-20T18:01:16.332Z,98789.56
2023-01-20T18:04:19.230Z,98794.78
2023-01-20T18:07:21.000Z,98800.00
2023-01-20T18:10:24.685Z,98807.84
2023-01-20T18:13:26.601Z,98806.97
2023-01-20T18:16:29.678Z,98817.44
2023-01-20T18:19:31.762Z,98814.81
2023-01-20T18:22:33.977Z,98820.06
2023-01-20T18:25:38.439Z,98821.78
2023-01-20T18:28:40.743Z,98827.91
2023-01-20T18:31:43.846Z,98824.41
2023-01-20T18:34:45.953Z,98840.06
2023-01-20T18:37:47.837Z,98843.53
2023-01-20T18:40:51.448Z,98845.25
2023-01-20T18:43:53.535Z,98847.03
2023-01-20T18:46:55.428Z,98849.66
2023-01-20T18:49:57.276Z,98851.41
2023-01-20T18:53:00.082Z,98854.91
2023-01-20T18:56:03.879Z,98855.75
2023-01-20T18:59:06.066Z,98862.75
2023-01-20T19:02:08.972Z,98862.72
2023-01-20T19:05:11.076Z,98864.47
2023-01-20T19:08:12.914Z,98873.19
2023-01-20T19:11:17.788Z,98878.38
2023-01-20T19:14:19.673Z,98879.28
2023-01-20T19:17:21.340Z,98879.25
2023-01-20T19:20:23.251Z,98887.09
2023-01-20T19:23:25.215Z,98889.69
2023-01-20T19:26:28.535Z,98892.31
2023-01-20T19:29:30.563Z,98898.41
2023-01-20T19:32:32.330Z,98901.84
2023-01-20T19:35:34.794Z,98904.38
2023-01-20T19:38:36.695Z,98912.22
2023-01-20T19:41:39.852Z,98907.84
2023-01-20T19:44:42.217Z,98913.91
2023-01-20T19:47:44.093Z,98918.22
2023-01-20T19:50:47.002Z,98919.09
2023-01-20T19:53:50.226Z,98919.09
2023-01-20T19:56:53.361Z,98925.22
2023-01-20T19:59:55.434Z,98921.72
2023-01-20T20:02:57.320Z,98932.16
2023-01-20T20:05:59.209Z,98926.00
2023-01-20T20:09:02.166Z,98938.22
2023-01-20T20:12:07.761Z,98940.00
2023-01-20T20:15:09.912Z,98939.16
2023-01-20T20:18:11.560Z,98948.75
2023-01-20T20:21:13.328Z,98944.38
2023-01-20T20:24:16.496Z,98949.59
2023-01-20T20:27:26.941Z,98955.72
2023-01-20T20:30:28.754Z,98958.31
2023-01-20T20:33:30.349Z,98959.19
2023-01-20T20:36:32.946Z,98965.28
2023-01-20T20:39:35.328Z,98969.59
2023-01-20T20:42:38.246Z,98974.00
2023-01-20T20:45:39.804Z,98976.59
2023-01-20T20:48:41.586Z,98981.84
2023-01-20T20:51:43.860Z,98986.19
2023-01-20T20:54:45.721Z,98985.34
2023-01-20T20:57:48.881Z,98991.44
2023-01-20T21:00:51.090Z,98993.16
2023-01-20T21:03:53.050Z,99000.16
2023-01-20T21:06:55.087Z,98996.66
2023-01-20T21:09:57.693Z,99014.09
2023-01-20T21:13:01.281Z,99004.50
2023-01-20T21:16:09.661Z,99004.50
2023-01-20T21:19:11.753Z,99008.00
2023-01-20T21:22:14.321Z,99008.88
2023-01-20T21:25:17.673Z,99018.44
2023-01-20T21:28:21.001Z,99027.13
2023-01-20T21:31:23.687Z,99029.72
2023-01-20T21:34:25.762Z,99028.84
2023-01-20T21:37:27.417Z,99029.78
2023-01-20T21:40:29.084Z,99033.22
2023-01-20T21:43:51.176Z,99035.81
2023-01-20T21:46:52.857Z,99045.41
2023-01-20T21:50:13.188Z,99038.38
2023-01-20T21:53:14.935Z,99045.34
2023-01-20T21:56:17.239Z,99052.31
2023-01-20T21:59:20.733Z,99051.47
2023-01-20T22:02:22.531Z,99053.22
2023-01-20T22:05:24.645Z,99060.97
2023-01-20T22:08:26.187Z,99062.66
2023-01-20T22:11:29.091Z,99074.00
2023-01-20T22:14:32.684Z,99073.09
2023-01-20T22:17:34.444Z,99074.78
2023-01-20T22:20:36.068Z,99079.16
2023-01-20T22:23:37.691Z,99078.25
2023-01-20T22:26:39.752Z,99089.56
2023-01-20T22:29:42.834Z,99093.91
2023-01-20T22:32:44.543Z,99090.38
2023-01-20T22:35:46.209Z,99094.75
2023-01-20T22:38:48.724Z,99097.38
2023-01-20T22:41:50.311Z,99104.34
2023-01-20T22:44:53.335Z,99097.38
2023-01-20T22:47:54.980Z,99108.63
2023-01-20T22:51:01.516Z,99105.97
2023-01-20T22:54:03.233Z,99105.09
2023-01-20T22:57:04.767Z,99119.91
2023-01-20T23:00:08.797Z,99118.16
2023-01-20T23:03:10.643Z,99126.84
2023-01-20T23:06:12.638Z,99125.97
2023-01-20T23:09:14.542Z,99131.22
2023-01-20T23:12:16.228Z,99134.72
2023-01-20T23:15:19.093Z,99136.34
2023-01-20T23:18:21.090Z,99140.72
2023-01-20T23:21:22.934Z,99138.94
2023-01-20T23:24:24.708Z,99148.53
2023-01-20T23:27:26.302Z,99153.78
2023-01-20T23:30:29.617Z,99158.09
2023-01-20T23:33:31.851Z,99157.22
2023-01-20T23:36:33.453Z,99159.81
2023-01-20T23:39:35.091Z,99165.94
2023-01-20T23:42:36.872Z,99166.81
2023-01-20T23:45:40.101Z,99177.28
2023-01-20T23:48:41.711Z,99176.44
2023-01-20T23:51:43.496Z,99182.59
2023-01-20T23:54:45.155Z,99188.59
2023-01-20T23:57:46.801Z,99187.72
